sensor_id;sensor_type;location;lat;lon;timestamp;P1;durP1;ratioP1;P2;durP2;ratioP2
69008;SDS011;56065;52.472;13.380;2024-01-11T00:00:02;18.37;;;6.23;;
69008;SDS011;56065;52.472;13.380;2024-01-11T00:02:28;21.75;;;6.82;;
69008;SDS011;56065;52.472;13.380;2024-01-11T00:04:54;18.80;;;6.10;;
69008;SDS011;56065;52.472;13.380;2024-01-11T00:07:19;16.47;;;5.50;;
69008;SDS011;56065;52.472;13.380;2024-01-11T00:09:44;18.77;;;6.03;;
69008;SDS011;56065;52.472;13.380;2024-01-11T00:12:10;21.37;;;6.23;;
69008;SDS011;56065;52.472;13.380;2024-01-11T00:14:35;17.67;;;6.32;;
69008;SDS011;56065;52.472;13.380;2024-01-11T00:17:01;17.27;;;6.00;;
69008;SDS011;56065;52.472;13.380;2024-01-11T00:19:26;16.90;;;5.83;;
69008;SDS011;56065;52.472;13.380;2024-01-11T00:21:52;18.35;;;5.97;;
69008;SDS011;56065;52.472;13.380;2024-01-11T00:24:18;18.00;;;6.43;;
69008;SDS011;56065;52.472;13.380;2024-01-11T00:26:43;16.03;;;5.70;;
69008;SDS011;56065;52.472;13.380;2024-01-11T00:29:08;21.88;;;6.47;;
69008;SDS011;56065;52.472;13.380;2024-01-11T00:31:34;19.55;;;6.72;;
69008;SDS011;56065;52.472;13.380;2024-01-11T00:34:00;19.02;;;6.80;;
69008;SDS011;56065;52.472;13.380;2024-01-11T00:36:25;20.45;;;7.50;;
69008;SDS011;56065;52.472;13.380;2024-01-11T00:38:51;21.73;;;6.83;;
69008;SDS011;56065;52.472;13.380;2024-01-11T00:41:16;19.00;;;7.00;;
69008;SDS011;56065;52.472;13.380;2024-01-11T00:43:42;17.70;;;6.18;;
69008;SDS011;56065;52.472;13.380;2024-01-11T00:46:07;18.52;;;5.38;;
69008;SDS011;56065;52.472;13.380;2024-01-11T00:48:32;15.63;;;5.50;;
69008;SDS011;56065;52.472;13.380;2024-01-11T00:50:58;15.60;;;5.40;;
69008;SDS011;56065;52.472;13.380;2024-01-11T00:53:23;16.70;;;5.47;;
69008;SDS011;56065;52.472;13.380;2024-01-11T00:55:49;18.67;;;6.13;;
69008;SDS011;56065;52.472;13.380;2024-01-11T00:58:14;18.13;;;5.63;;
69008;SDS011;56065;52.472;13.380;2024-01-11T01:00:39;15.93;;;5.67;;
69008;SDS011;56065;52.472;13.380;2024-01-11T01:03:05;15.90;;;5.35;;
69008;SDS011;56065;52.472;13.380;2024-01-11T01:05:30;15.43;;;4.97;;
69008;SDS011;56065;52.472;13.380;2024-01-11T01:07:55;16.63;;;4.40;;
69008;SDS011;56065;52.472;13.380;2024-01-11T01:10:21;18.07;;;5.90;;
69008;SDS011;56065;52.472;13.380;2024-01-11T01:12:46;13.27;;;4.73;;
69008;SDS011;56065;52.472;13.380;2024-01-11T01:15:11;11.63;;;3.57;;
69008;SDS011;56065;52.472;13.380;2024-01-11T01:17:37;13.37;;;4.67;;
69008;SDS011;56065;52.472;13.380;2024-01-11T01:20:02;14.65;;;4.53;;
69008;SDS011;56065;52.472;13.380;2024-01-11T01:22:28;14.50;;;4.90;;
69008;SDS011;56065;52.472;13.380;2024-01-11T01:24:53;16.55;;;4.95;;
69008;SDS011;56065;52.472;13.380;2024-01-11T01:27:19;13.15;;;4.88;;
69008;SDS011;56065;52.472;13.380;2024-01-11T01:29:44;13.77;;;4.87;;
69008;SDS011;56065;52.472;13.380;2024-01-11T01:32:09;11.43;;;3.73;;
69008;SDS011;56065;52.472;13.380;2024-01-11T01:34:35;11.83;;;3.63;;
69008;SDS011;56065;52.472;13.380;2024-01-11T01:37:00;11.63;;;3.50;;
69008;SDS011;56065;52.472;13.380;2024-01-11T01:39:25;16.47;;;3.90;;
69008;SDS011;56065;52.472;13.380;2024-01-11T01:41:51;12.17;;;3.80;;
69008;SDS011;56065;52.472;13.380;2024-01-11T01:44:16;13.50;;;4.03;;
69008;SDS011;56065;52.472;13.380;2024-01-11T01:46:41;13.55;;;4.60;;
69008;SDS011;56065;52.472;13.380;2024-01-11T01:49:07;13.50;;;5.13;;
69008;SDS011;56065;52.472;13.380;2024-01-11T01:51:32;15.80;;;4.90;;
69008;SDS011;56065;52.472;13.380;2024-01-11T01:53:58;17.95;;;5.93;;
69008;SDS011;56065;52.472;13.380;2024-01-11T01:56:25;20.13;;;6.35;;
69008;SDS011;56065;52.472;13.380;2024-01-11T01:58:51;20.55;;;6.25;;
69008;SDS011;56065;52.472;13.380;2024-01-11T02:01:18;20.25;;;6.57;;
69008;SDS011;56065;52.472;13.380;2024-01-11T02:03:45;17.67;;;6.03;;
69008;SDS011;56065;52.472;13.380;2024-01-11T02:06:14;20.63;;;6.55;;
69008;SDS011;56065;52.472;13.380;2024-01-11T02:08:41;20.48;;;6.97;;
69008;SDS011;56065;52.472;13.380;2024-01-11T02:11:08;18.52;;;6.20;;
69008;SDS011;56065;52.472;13.380;2024-01-11T02:13:35;21.30;;;6.28;;
69008;SDS011;56065;52.472;13.380;2024-01-11T02:16:01;22.70;;;6.80;;
69008;SDS011;56065;52.472;13.380;2024-01-11T02:18:26;20.53;;;6.57;;
69008;SDS011;56065;52.472;13.380;2024-01-11T02:20:51;18.93;;;5.20;;
69008;SDS011;56065;52.472;13.380;2024-01-11T02:23:17;14.13;;;4.93;;
69008;SDS011;56065;52.472;13.380;2024-01-11T02:25:44;14.70;;;4.53;;
69008;SDS011;56065;52.472;13.380;2024-01-11T02:28:09;11.40;;;3.57;;
69008;SDS011;56065;52.472;13.380;2024-01-11T02:30:36;15.57;;;4.32;;
69008;SDS011;56065;52.472;13.380;2024-01-11T02:33:01;11.40;;;3.10;;
69008;SDS011;56065;52.472;13.380;2024-01-11T02:35:27;11.20;;;2.90;;
69008;SDS011;56065;52.472;13.380;2024-01-11T02:37:53;11.43;;;3.17;;
69008;SDS011;56065;52.472;13.380;2024-01-11T02:40:19;7.80;;;2.67;;
69008;SDS011;56065;52.472;13.380;2024-01-11T02:42:45;9.55;;;2.50;;
69008;SDS011;56065;52.472;13.380;2024-01-11T02:45:11;10.07;;;2.87;;
69008;SDS011;56065;52.472;13.380;2024-01-11T02:47:40;11.55;;;2.90;;
69008;SDS011;56065;52.472;13.380;2024-01-11T02:50:05;7.47;;;2.20;;
69008;SDS011;56065;52.472;13.380;2024-01-11T02:52:32;9.88;;;2.55;;
69008;SDS011;56065;52.472;13.380;2024-01-11T02:54:58;10.20;;;3.10;;
69008;SDS011;56065;52.472;13.380;2024-01-11T02:57:23;14.05;;;2.72;;
69008;SDS011;56065;52.472;13.380;2024-01-11T02:59:49;9.37;;;2.73;;
69008;SDS011;56065;52.472;13.380;2024-01-11T03:02:16;9.85;;;2.55;;
69008;SDS011;56065;52.472;13.380;2024-01-11T03:04:42;11.67;;;3.13;;
69008;SDS011;56065;52.472;13.380;2024-01-11T03:07:07;9.40;;;2.37;;
69008;SDS011;56065;52.472;13.380;2024-01-11T03:09:32;10.93;;;2.97;;
69008;SDS011;56065;52.472;13.380;2024-01-11T03:11:59;11.80;;;2.80;;
69008;SDS011;56065;52.472;13.380;2024-01-11T03:14:24;11.37;;;2.50;;
69008;SDS011;56065;52.472;13.380;2024-01-11T03:16:49;9.87;;;2.47;;
69008;SDS011;56065;52.472;13.380;2024-01-11T03:19:15;9.70;;;3.20;;
69008;SDS011;56065;52.472;13.380;2024-01-11T03:21:41;11.07;;;2.73;;
69008;SDS011;56065;52.472;13.380;2024-01-11T03:24:08;12.55;;;2.42;;
69008;SDS011;56065;52.472;13.380;2024-01-11T03:26:33;9.57;;;3.03;;
69008;SDS011;56065;52.472;13.380;2024-01-11T03:28:59;9.83;;;3.00;;
69008;SDS011;56065;52.472;13.380;2024-01-11T03:31:24;11.75;;;3.20;;
69008;SDS011;56065;52.472;13.380;2024-01-11T03:33:49;11.25;;;3.47;;
69008;SDS011;56065;52.472;13.380;2024-01-11T03:36:15;11.63;;;3.60;;
69008;SDS011;56065;52.472;13.380;2024-01-11T03:38:40;16.37;;;4.40;;
69008;SDS011;56065;52.472;13.380;2024-01-11T03:41:07;17.07;;;4.97;;
69008;SDS011;56065;52.472;13.380;2024-01-11T03:43:34;15.23;;;4.10;;
69008;SDS011;56065;52.472;13.380;2024-01-11T03:45:59;12.63;;;4.23;;
69008;SDS011;56065;52.472;13.380;2024-01-11T03:48:24;19.07;;;4.43;;
69008;SDS011;56065;52.472;13.380;2024-01-11T03:50:50;17.63;;;4.43;;
69008;SDS011;56065;52.472;13.380;2024-01-11T03:53:15;15.00;;;4.87;;
69008;SDS011;56065;52.472;13.380;2024-01-11T03:55:40;14.77;;;4.25;;
69008;SDS011;56065;52.472;13.380;2024-01-11T03:58:06;16.15;;;3.97;;
69008;SDS011;56065;52.472;13.380;2024-01-11T04:00:31;12.57;;;3.90;;
69008;SDS011;56065;52.472;13.380;2024-01-11T04:02:58;14.18;;;4.15;;
69008;SDS011;56065;52.472;13.380;2024-01-11T04:05:23;18.10;;;5.10;;
69008;SDS011;56065;52.472;13.380;2024-01-11T04:07:49;14.53;;;5.23;;
69008;SDS011;56065;52.472;13.380;2024-01-11T04:10:15;16.80;;;4.37;;
69008;SDS011;56065;52.472;13.380;2024-01-11T04:12:42;17.83;;;4.45;;
69008;SDS011;56065;52.472;13.380;2024-01-11T04:15:08;15.23;;;4.03;;
69008;SDS011;56065;52.472;13.380;2024-01-11T04:17:33;16.00;;;4.28;;
69008;SDS011;56065;52.472;13.380;2024-01-11T04:19:59;15.57;;;4.07;;
69008;SDS011;56065;52.472;13.380;2024-01-11T04:22:24;14.87;;;4.13;;
69008;SDS011;56065;52.472;13.380;2024-01-11T04:24:50;14.13;;;3.80;;
69008;SDS011;56065;52.472;13.380;2024-01-11T04:27:15;11.40;;;3.83;;
69008;SDS011;56065;52.472;13.380;2024-01-11T04:29:41;16.50;;;3.72;;
69008;SDS011;56065;52.472;13.380;2024-01-11T04:32:06;15.03;;;3.47;;
69008;SDS011;56065;52.472;13.380;2024-01-11T04:34:31;12.90;;;2.93;;
69008;SDS011;56065;52.472;13.380;2024-01-11T04:36:57;13.93;;;4.40;;
69008;SDS011;56065;52.472;13.380;2024-01-11T04:39:22;12.27;;;3.40;;
69008;SDS011;56065;52.472;13.380;2024-01-11T04:41:47;17.57;;;4.10;;
69008;SDS011;56065;52.472;13.380;2024-01-11T04:44:13;16.93;;;3.80;;
69008;SDS011;56065;52.472;13.380;2024-01-11T04:46:38;15.20;;;3.47;;
69008;SDS011;56065;52.472;13.380;2024-01-11T04:49:03;13.23;;;3.80;;
69008;SDS011;56065;52.472;13.380;2024-01-11T04:51:29;14.77;;;5.10;;
69008;SDS011;56065;52.472;13.380;2024-01-11T04:53:54;17.60;;;3.67;;
69008;SDS011;56065;52.472;13.380;2024-01-11T04:56:19;16.73;;;3.50;;
69008;SDS011;56065;52.472;13.380;2024-01-11T04:58:45;14.63;;;3.63;;
69008;SDS011;56065;52.472;13.380;2024-01-11T05:01:17;13.97;;;3.40;;
69008;SDS011;56065;52.472;13.380;2024-01-11T05:03:43;16.13;;;4.22;;
69008;SDS011;56065;52.472;13.380;2024-01-11T05:06:19;11.88;;;3.38;;
69008;SDS011;56065;52.472;13.380;2024-01-11T05:08:51;13.82;;;3.25;;
69008;SDS011;56065;52.472;13.380;2024-01-11T05:13:46;13.40;;;3.43;;
69008;SDS011;56065;52.472;13.380;2024-01-11T05:16:25;14.10;;;3.53;;
69008;SDS011;56065;52.472;13.380;2024-01-11T05:18:52;13.93;;;3.55;;
69008;SDS011;56065;52.472;13.380;2024-01-11T05:21:19;14.15;;;3.50;;
69008;SDS011;56065;52.472;13.380;2024-01-11T05:23:44;14.27;;;3.97;;
69008;SDS011;56065;52.472;13.380;2024-01-11T05:26:10;14.07;;;3.20;;
69008;SDS011;56065;52.472;13.380;2024-01-11T05:28:36;14.53;;;4.07;;
69008;SDS011;56065;52.472;13.380;2024-01-11T05:31:04;12.48;;;2.67;;
69008;SDS011;56065;52.472;13.380;2024-01-11T05:33:31;16.73;;;3.88;;
69008;SDS011;56065;52.472;13.380;2024-01-11T05:35:57;16.33;;;4.03;;
69008;SDS011;56065;52.472;13.380;2024-01-11T05:38:22;15.63;;;4.03;;
69008;SDS011;56065;52.472;13.380;2024-01-11T05:40:47;15.50;;;3.77;;
69008;SDS011;56065;52.472;13.380;2024-01-11T05:43:13;12.57;;;3.93;;
69008;SDS011;56065;52.472;13.380;2024-01-11T05:45:38;18.20;;;4.20;;
69008;SDS011;56065;52.472;13.380;2024-01-11T05:48:03;13.68;;;3.35;;
69008;SDS011;56065;52.472;13.380;2024-01-11T05:50:30;16.93;;;3.87;;
69008;SDS011;56065;52.472;13.380;2024-01-11T05:52:56;15.45;;;4.03;;
69008;SDS011;56065;52.472;13.380;2024-01-11T05:55:21;14.83;;;3.30;;
69008;SDS011;56065;52.472;13.380;2024-01-11T05:57:47;16.93;;;4.37;;
69008;SDS011;56065;52.472;13.380;2024-01-11T06:00:13;17.17;;;3.65;;
69008;SDS011;56065;52.472;13.380;2024-01-11T06:02:39;19.02;;;4.20;;
69008;SDS011;56065;52.472;13.380;2024-01-11T06:05:07;18.48;;;4.13;;
69008;SDS011;56065;52.472;13.380;2024-01-11T06:07:33;18.60;;;4.38;;
69008;SDS011;56065;52.472;13.380;2024-01-11T06:09:58;16.40;;;3.97;;
69008;SDS011;56065;52.472;13.380;2024-01-11T06:12:26;16.02;;;4.35;;
69008;SDS011;56065;52.472;13.380;2024-01-11T06:14:51;24.50;;;4.80;;
69008;SDS011;56065;52.472;13.380;2024-01-11T06:17:17;17.67;;;3.97;;
69008;SDS011;56065;52.472;13.380;2024-01-11T06:19:42;18.75;;;4.28;;
69008;SDS011;56065;52.472;13.380;2024-01-11T06:22:07;19.67;;;4.63;;
69008;SDS011;56065;52.472;13.380;2024-01-11T06:24:32;20.00;;;4.50;;
69008;SDS011;56065;52.472;13.380;2024-01-11T06:26:58;19.70;;;4.93;;
69008;SDS011;56065;52.472;13.380;2024-01-11T06:29:23;15.80;;;4.33;;
69008;SDS011;56065;52.472;13.380;2024-01-11T06:31:48;19.40;;;5.67;;
69008;SDS011;56065;52.472;13.380;2024-01-11T06:34:14;17.80;;;4.53;;
69008;SDS011;56065;52.472;13.380;2024-01-11T06:36:40;23.25;;;5.40;;
69008;SDS011;56065;52.472;13.380;2024-01-11T06:39:05;21.03;;;4.73;;
69008;SDS011;56065;52.472;13.380;2024-01-11T06:41:31;23.03;;;6.07;;
69008;SDS011;56065;52.472;13.380;2024-01-11T06:43:56;20.00;;;5.18;;
69008;SDS011;56065;52.472;13.380;2024-01-11T06:46:21;23.07;;;5.93;;
69008;SDS011;56065;52.472;13.380;2024-01-11T06:48:48;21.10;;;5.28;;
69008;SDS011;56065;52.472;13.380;2024-01-11T06:51:14;20.63;;;5.85;;
69008;SDS011;56065;52.472;13.380;2024-01-11T06:53:41;23.85;;;6.05;;
69008;SDS011;56065;52.472;13.380;2024-01-11T06:56:16;23.52;;;5.57;;
69008;SDS011;56065;52.472;13.380;2024-01-11T06:58:43;25.30;;;6.15;;
69008;SDS011;56065;52.472;13.380;2024-01-11T07:01:09;24.58;;;5.97;;
69008;SDS011;56065;52.472;13.380;2024-01-11T07:03:34;28.13;;;5.78;;
69008;SDS011;56065;52.472;13.380;2024-01-11T07:05:59;24.53;;;6.23;;
69008;SDS011;56065;52.472;13.380;2024-01-11T07:08:25;22.30;;;6.47;;
69008;SDS011;56065;52.472;13.380;2024-01-11T07:10:50;20.53;;;5.20;;
69008;SDS011;56065;52.472;13.380;2024-01-11T07:13:16;25.50;;;6.22;;
69008;SDS011;56065;52.472;13.380;2024-01-11T07:15:42;20.90;;;5.97;;
69008;SDS011;56065;52.472;13.380;2024-01-11T07:18:08;22.08;;;6.07;;
69008;SDS011;56065;52.472;13.380;2024-01-11T07:20:33;20.10;;;5.37;;
69008;SDS011;56065;52.472;13.380;2024-01-11T07:22:59;23.80;;;5.67;;
69008;SDS011;56065;52.472;13.380;2024-01-11T07:25:24;16.10;;;5.00;;
69008;SDS011;56065;52.472;13.380;2024-01-11T07:27:50;24.67;;;5.67;;
69008;SDS011;56065;52.472;13.380;2024-01-11T07:30:15;20.57;;;4.70;;
69008;SDS011;56065;52.472;13.380;2024-01-11T07:32:41;18.77;;;5.03;;
69008;SDS011;56065;52.472;13.380;2024-01-11T07:35:06;21.40;;;6.03;;
69008;SDS011;56065;52.472;13.380;2024-01-11T07:37:32;22.52;;;5.68;;
69008;SDS011;56065;52.472;13.380;2024-01-11T07:39:57;22.40;;;5.87;;
69008;SDS011;56065;52.472;13.380;2024-01-11T07:42:23;22.23;;;6.83;;
69008;SDS011;56065;52.472;13.380;2024-01-11T07:44:48;25.73;;;6.17;;
69008;SDS011;56065;52.472;13.380;2024-01-11T07:47:13;24.48;;;6.68;;
69008;SDS011;56065;52.472;13.380;2024-01-11T07:49:39;25.38;;;6.43;;
69008;SDS011;56065;52.472;13.380;2024-01-11T07:52:04;23.07;;;6.30;;
69008;SDS011;56065;52.472;13.380;2024-01-11T07:54:30;23.33;;;6.53;;
69008;SDS011;56065;52.472;13.380;2024-01-11T07:56:56;26.67;;;6.63;;
69008;SDS011;56065;52.472;13.380;2024-01-11T07:59:21;25.00;;;5.60;;
69008;SDS011;56065;52.472;13.380;2024-01-11T08:01:47;21.65;;;5.80;;
69008;SDS011;56065;52.472;13.380;2024-01-11T08:04:13;27.65;;;6.45;;
69008;SDS011;56065;52.472;13.380;2024-01-11T08:06:39;22.85;;;5.65;;
69008;SDS011;56065;52.472;13.380;2024-01-11T08:09:04;26.60;;;6.07;;
69008;SDS011;56065;52.472;13.380;2024-01-11T08:11:30;23.33;;;5.60;;
69008;SDS011;56065;52.472;13.380;2024-01-11T08:13:56;21.87;;;6.47;;
69008;SDS011;56065;52.472;13.380;2024-01-11T08:16:21;22.92;;;6.95;;
69008;SDS011;56065;52.472;13.380;2024-01-11T08:18:47;27.07;;;6.57;;
69008;SDS011;56065;52.472;13.380;2024-01-11T08:21:14;25.70;;;6.85;;
69008;SDS011;56065;52.472;13.380;2024-01-11T08:23:40;22.67;;;6.10;;
69008;SDS011;56065;52.472;13.380;2024-01-11T08:26:12;23.38;;;6.18;;
69008;SDS011;56065;52.472;13.380;2024-01-11T08:28:43;20.80;;;6.40;;
69008;SDS011;56065;52.472;13.380;2024-01-11T08:31:09;24.70;;;7.30;;
69008;SDS011;56065;52.472;13.380;2024-01-11T08:33:34;25.20;;;5.67;;
69008;SDS011;56065;52.472;13.380;2024-01-11T08:36:01;21.60;;;6.97;;
69008;SDS011;56065;52.472;13.380;2024-01-11T08:38:28;22.63;;;6.10;;
69008;SDS011;56065;52.472;13.380;2024-01-11T08:40:54;24.10;;;6.85;;
69008;SDS011;56065;52.472;13.380;2024-01-11T08:43:20;28.17;;;7.50;;
69008;SDS011;56065;52.472;13.380;2024-01-11T08:45:45;24.23;;;7.10;;
69008;SDS011;56065;52.472;13.380;2024-01-11T08:48:12;23.70;;;6.47;;
69008;SDS011;56065;52.472;13.380;2024-01-11T08:50:37;24.25;;;7.05;;
69008;SDS011;56065;52.472;13.380;2024-01-11T08:53:02;20.63;;;5.90;;
69008;SDS011;56065;52.472;13.380;2024-01-11T08:55:28;23.23;;;6.20;;
69008;SDS011;56065;52.472;13.380;2024-01-11T08:57:53;24.37;;;6.50;;
69008;SDS011;56065;52.472;13.380;2024-01-11T09:00:19;23.90;;;6.68;;
69008;SDS011;56065;52.472;13.380;2024-01-11T09:02:44;19.70;;;6.28;;
69008;SDS011;56065;52.472;13.380;2024-01-11T09:05:11;23.77;;;6.55;;
69008;SDS011;56065;52.472;13.380;2024-01-11T09:07:36;19.03;;;5.37;;
69008;SDS011;56065;52.472;13.380;2024-01-11T09:10:02;24.90;;;6.75;;
69008;SDS011;56065;52.472;13.380;2024-01-11T09:12:28;20.90;;;5.83;;
69008;SDS011;56065;52.472;13.380;2024-01-11T09:14:53;20.73;;;6.47;;
69008;SDS011;56065;52.472;13.380;2024-01-11T09:17:19;22.17;;;5.97;;
69008;SDS011;56065;52.472;13.380;2024-01-11T09:19:45;21.63;;;5.17;;
69008;SDS011;56065;52.472;13.380;2024-01-11T09:22:10;21.65;;;6.32;;
69008;SDS011;56065;52.472;13.380;2024-01-11T09:24:35;23.25;;;6.47;;
69008;SDS011;56065;52.472;13.380;2024-01-11T09:27:01;20.30;;;5.87;;
69008;SDS011;56065;52.472;13.380;2024-01-11T09:29:28;24.42;;;6.15;;
69008;SDS011;56065;52.472;13.380;2024-01-11T09:31:53;19.57;;;5.30;;
69008;SDS011;56065;52.472;13.380;2024-01-11T09:34:18;27.60;;;6.30;;
69008;SDS011;56065;52.472;13.380;2024-01-11T09:36:44;18.58;;;5.90;;
69008;SDS011;56065;52.472;13.380;2024-01-11T09:39:10;22.33;;;6.65;;
69008;SDS011;56065;52.472;13.380;2024-01-11T09:41:38;21.98;;;6.93;;
69008;SDS011;56065;52.472;13.380;2024-01-11T09:44:10;23.30;;;7.10;;
69008;SDS011;56065;52.472;13.380;2024-01-11T09:46:35;21.83;;;6.60;;
69008;SDS011;56065;52.472;13.380;2024-01-11T09:49:01;25.70;;;6.95;;
69008;SDS011;56065;52.472;13.380;2024-01-11T09:51:29;24.00;;;5.95;;
69008;SDS011;56065;52.472;13.380;2024-01-11T09:53:55;24.20;;;6.53;;
69008;SDS011;56065;52.472;13.380;2024-01-11T09:56:21;22.08;;;6.32;;
69008;SDS011;56065;52.472;13.380;2024-01-11T09:58:49;25.80;;;7.28;;
69008;SDS011;56065;52.472;13.380;2024-01-11T10:01:16;22.27;;;6.75;;
69008;SDS011;56065;52.472;13.380;2024-01-11T10:03:41;23.00;;;7.13;;
69008;SDS011;56065;52.472;13.380;2024-01-11T10:06:07;25.88;;;7.05;;
69008;SDS011;56065;52.472;13.380;2024-01-11T10:08:34;25.05;;;6.60;;
69008;SDS011;56065;52.472;13.380;2024-01-11T10:11:00;25.88;;;7.30;;
69008;SDS011;56065;52.472;13.380;2024-01-11T10:13:28;23.90;;;6.72;;
69008;SDS011;56065;52.472;13.380;2024-01-11T10:16:10;25.50;;;7.07;;
69008;SDS011;56065;52.472;13.380;2024-01-11T10:18:40;23.80;;;7.13;;
69008;SDS011;56065;52.472;13.380;2024-01-11T10:21:06;23.23;;;7.28;;
69008;SDS011;56065;52.472;13.380;2024-01-11T10:23:35;27.07;;;7.93;;
69008;SDS011;56065;52.472;13.380;2024-01-11T10:26:01;25.40;;;7.03;;
69008;SDS011;56065;52.472;13.380;2024-01-11T10:28:27;25.42;;;6.72;;
69008;SDS011;56065;52.472;13.380;2024-01-11T10:30:53;24.87;;;6.83;;
69008;SDS011;56065;52.472;13.380;2024-01-11T10:33:19;29.92;;;7.93;;
69008;SDS011;56065;52.472;13.380;2024-01-11T10:35:48;26.88;;;7.47;;
69008;SDS011;56065;52.472;13.380;2024-01-11T10:38:17;24.88;;;7.20;;
69008;SDS011;56065;52.472;13.380;2024-01-11T10:40:43;26.08;;;7.25;;
69008;SDS011;56065;52.472;13.380;2024-01-11T10:43:09;31.77;;;7.17;;
69008;SDS011;56065;52.472;13.380;2024-01-11T10:45:36;22.95;;;6.85;;
69008;SDS011;56065;52.472;13.380;2024-01-11T10:48:07;21.63;;;6.30;;
69008;SDS011;56065;52.472;13.380;2024-01-11T10:50:37;24.52;;;7.15;;
69008;SDS011;56065;52.472;13.380;2024-01-11T10:53:25;24.50;;;6.40;;
69008;SDS011;56065;52.472;13.380;2024-01-11T10:55:52;26.77;;;8.73;;
69008;SDS011;56065;52.472;13.380;2024-01-11T10:58:19;22.50;;;6.78;;
69008;SDS011;56065;52.472;13.380;2024-01-11T11:00:46;25.58;;;7.60;;
69008;SDS011;56065;52.472;13.380;2024-01-11T11:03:13;23.98;;;6.72;;
69008;SDS011;56065;52.472;13.380;2024-01-11T11:05:40;24.02;;;7.30;;
69008;SDS011;56065;52.472;13.380;2024-01-11T11:08:08;27.47;;;6.97;;
69008;SDS011;56065;52.472;13.380;2024-01-11T11:10:35;29.48;;;8.82;;
69008;SDS011;56065;52.472;13.380;2024-01-11T11:13:01;25.60;;;7.35;;
69008;SDS011;56065;52.472;13.380;2024-01-11T11:15:28;24.77;;;7.68;;
69008;SDS011;56065;52.472;13.380;2024-01-11T11:17:54;25.67;;;6.83;;
69008;SDS011;56065;52.472;13.380;2024-01-11T11:20:20;24.10;;;6.80;;
69008;SDS011;56065;52.472;13.380;2024-01-11T11:23:04;23.43;;;5.90;;
69008;SDS011;56065;52.472;13.380;2024-01-11T11:25:30;23.40;;;7.70;;
69008;SDS011;56065;52.472;13.380;2024-01-11T11:27:56;27.43;;;8.27;;
69008;SDS011;56065;52.472;13.380;2024-01-11T11:30:21;27.23;;;7.85;;
69008;SDS011;56065;52.472;13.380;2024-01-11T11:32:46;25.37;;;7.90;;
69008;SDS011;56065;52.472;13.380;2024-01-11T11:35:12;29.70;;;7.80;;
69008;SDS011;56065;52.472;13.380;2024-01-11T11:37:38;28.38;;;8.55;;
69008;SDS011;56065;52.472;13.380;2024-01-11T11:40:13;24.65;;;6.93;;
69008;SDS011;56065;52.472;13.380;2024-01-11T11:42:39;31.00;;;8.63;;
69008;SDS011;56065;52.472;13.380;2024-01-11T11:45:05;28.27;;;8.23;;
69008;SDS011;56065;52.472;13.380;2024-01-11T11:47:36;29.63;;;8.70;;
69008;SDS011;56065;52.472;13.380;2024-01-11T11:50:09;27.30;;;8.35;;
69008;SDS011;56065;52.472;13.380;2024-01-11T11:52:37;30.02;;;8.30;;
69008;SDS011;56065;52.472;13.380;2024-01-11T11:55:03;31.70;;;9.48;;
69008;SDS011;56065;52.472;13.380;2024-01-11T11:57:31;29.40;;;7.97;;
69008;SDS011;56065;52.472;13.380;2024-01-11T11:59:57;28.80;;;8.48;;
69008;SDS011;56065;52.472;13.380;2024-01-11T12:02:24;30.23;;;8.48;;
69008;SDS011;56065;52.472;13.380;2024-01-11T12:04:51;28.95;;;9.23;;
69008;SDS011;56065;52.472;13.380;2024-01-11T12:07:17;35.92;;;10.35;;
69008;SDS011;56065;52.472;13.380;2024-01-11T12:09:43;30.55;;;8.25;;
69008;SDS011;56065;52.472;13.380;2024-01-11T12:12:08;26.80;;;9.13;;
69008;SDS011;56065;52.472;13.380;2024-01-11T12:14:34;28.90;;;8.90;;
69008;SDS011;56065;52.472;13.380;2024-01-11T12:17:00;26.77;;;7.50;;
69008;SDS011;56065;52.472;13.380;2024-01-11T12:19:26;30.07;;;8.40;;
69008;SDS011;56065;52.472;13.380;2024-01-11T12:21:52;29.88;;;8.75;;
69008;SDS011;56065;52.472;13.380;2024-01-11T12:24:18;27.10;;;8.70;;
69008;SDS011;56065;52.472;13.380;2024-01-11T12:26:44;27.43;;;9.07;;
69008;SDS011;56065;52.472;13.380;2024-01-11T12:29:11;27.02;;;8.45;;
69008;SDS011;56065;52.472;13.380;2024-01-11T12:31:38;26.63;;;7.75;;
69008;SDS011;56065;52.472;13.380;2024-01-11T12:34:03;28.43;;;9.37;;
69008;SDS011;56065;52.472;13.380;2024-01-11T12:36:30;28.60;;;8.95;;
69008;SDS011;56065;52.472;13.380;2024-01-11T12:38:57;26.83;;;8.90;;
69008;SDS011;56065;52.472;13.380;2024-01-11T12:41:23;28.85;;;8.52;;
69008;SDS011;56065;52.472;13.380;2024-01-11T12:43:49;27.13;;;8.07;;
69008;SDS011;56065;52.472;13.380;2024-01-11T12:46:15;27.67;;;7.57;;
69008;SDS011;56065;52.472;13.380;2024-01-11T12:48:41;30.38;;;9.38;;
69008;SDS011;56065;52.472;13.380;2024-01-11T12:51:07;23.73;;;7.40;;
69008;SDS011;56065;52.472;13.380;2024-01-11T12:53:32;25.83;;;7.90;;
69008;SDS011;56065;52.472;13.380;2024-01-11T12:56:04;28.60;;;8.90;;
69008;SDS011;56065;52.472;13.380;2024-01-11T12:58:35;25.45;;;7.47;;
69008;SDS011;56065;52.472;13.380;2024-01-11T13:01:01;26.50;;;7.70;;
69008;SDS011;56065;52.472;13.380;2024-01-11T13:03:28;25.02;;;9.10;;
69008;SDS011;56065;52.472;13.380;2024-01-11T13:05:53;26.03;;;8.67;;
69008;SDS011;56065;52.472;13.380;2024-01-11T13:08:18;28.27;;;9.10;;
69008;SDS011;56065;52.472;13.380;2024-01-11T13:10:44;24.45;;;7.10;;
69008;SDS011;56065;52.472;13.380;2024-01-11T13:13:10;23.97;;;8.23;;
69008;SDS011;56065;52.472;13.380;2024-01-11T13:15:35;28.20;;;7.90;;
69008;SDS011;56065;52.472;13.380;2024-01-11T13:18:01;24.05;;;8.10;;
69008;SDS011;56065;52.472;13.380;2024-01-11T13:20:27;31.75;;;7.82;;
69008;SDS011;56065;52.472;13.380;2024-01-11T13:23:11;29.70;;;8.68;;
69008;SDS011;56065;52.472;13.380;2024-01-11T13:25:46;25.90;;;7.60;;
69008;SDS011;56065;52.472;13.380;2024-01-11T13:28:12;26.23;;;8.15;;
69008;SDS011;56065;52.472;13.380;2024-01-11T13:30:39;24.35;;;7.07;;
69008;SDS011;56065;52.472;13.380;2024-01-11T13:33:05;24.17;;;7.93;;
69008;SDS011;56065;52.472;13.380;2024-01-11T13:35:32;23.80;;;8.10;;
69008;SDS011;56065;52.472;13.380;2024-01-11T13:37:59;26.60;;;7.40;;
69008;SDS011;56065;52.472;13.380;2024-01-11T13:40:25;26.60;;;7.78;;
69008;SDS011;56065;52.472;13.380;2024-01-11T13:42:53;26.77;;;7.25;;
69008;SDS011;56065;52.472;13.380;2024-01-11T13:45:19;19.77;;;6.70;;
69008;SDS011;56065;52.472;13.380;2024-01-11T13:47:44;23.07;;;7.27;;
69008;SDS011;56065;52.472;13.380;2024-01-11T13:50:10;19.92;;;6.72;;
69008;SDS011;56065;52.472;13.380;2024-01-11T13:52:35;21.87;;;6.87;;
69008;SDS011;56065;52.472;13.380;2024-01-11T13:55:00;22.50;;;6.83;;
69008;SDS011;56065;52.472;13.380;2024-01-11T13:57:26;20.17;;;6.67;;
69008;SDS011;56065;52.472;13.380;2024-01-11T13:59:51;23.30;;;6.80;;
69008;SDS011;56065;52.472;13.380;2024-01-11T14:02:17;18.70;;;6.43;;
69008;SDS011;56065;52.472;13.380;2024-01-11T14:04:42;19.53;;;6.83;;
69008;SDS011;56065;52.472;13.380;2024-01-11T14:07:08;20.38;;;5.82;;
69008;SDS011;56065;52.472;13.380;2024-01-11T14:09:33;19.30;;;6.40;;
69008;SDS011;56065;52.472;13.380;2024-01-11T14:11:58;21.63;;;6.43;;
69008;SDS011;56065;52.472;13.380;2024-01-11T14:14:24;20.70;;;6.03;;
69008;SDS011;56065;52.472;13.380;2024-01-11T14:16:49;21.13;;;6.87;;